Time;durP1;ratioP1;P1;durP2;ratioP2;P2;SDS_P1;SDS_P2;PMS_P1;PMS_P2;Temp;Humidity;BMP_temperature;BMP_pressure;BME280_temperature;BME280_humidity;BME280_pressure;Samples;Min_cycle;Max_cycle;Signal;HPM_P1;HPM_P2
2023/09/07 00:01:52;;;;;;;9.38;3.40;;;18.10;99.90;;;;;;5061460;28;20041;-63
2023/09/07 00:04:18;;;;;;;8.85;3.40;;;18.10;99.90;;;;;;5056753;28;20048;-63
2023/09/07 00:06:44;;;;;;;10.82;3.30;;;18.00;99.90;;;;;;5060998;28;20059;-63
2023/09/07 00:09:11;;;;;;;;;;;17.90;99.90;;;;;;5055466;28;20076;-64
2023/09/07 00:11:37;;;;;;;5.60;3.08;;;18.00;99.90;;;;;;5063816;28;19916;-62
2023/09/07 00:14:03;;;;;;;6.25;3.22;;;17.90;99.90;;;;;;5055832;28;20119;-63
2023/09/07 00:16:35;;;;;;;;;;;17.90;99.90;;;;;;5065851;28;20124;-65
2023/09/07 00:19:03;;;;;;;6.75;3.35;;;17.80;99.90;;;;;;5043608;28;19923;-65
2023/09/07 00:21:28;;;;;;;9.82;3.47;;;17.70;99.90;;;;;;5051764;28;20067;-63
2023/09/07 00:23:54;;;;;;;;;;;17.60;99.90;;;;;;5047766;28;20044;-64
2023/09/07 00:26:20;;;;;;;8.77;3.40;;;17.50;99.90;;;;;;5049392;28;19920;-62
2023/09/07 00:28:46;;;;;;;;;;;17.50;99.90;;;;;;5049573;28;20558;-62
2023/09/07 00:31:11;;;;;;;7.15;3.40;;;17.40;99.90;;;;;;5046186;28;20146;-63
2023/09/07 00:33:37;;;;;;;12.00;3.85;;;17.40;99.90;;;;;;5043493;28;20040;-62
2023/09/07 00:36:03;;;;;;;7.25;3.78;;;17.30;99.90;;;;;;5046383;28;20068;-62
2023/09/07 00:38:28;;;;;;;;;;;17.20;99.90;;;;;;5045460;28;20087;-63
2023/09/07 00:40:54;;;;;;;11.43;3.75;;;17.20;99.90;;;;;;5045911;28;19917;-63
2023/09/07 00:43:20;;;;;;;;;;;17.10;99.90;;;;;;5052715;28;20032;-62
2023/09/07 00:45:46;;;;;;;6.80;3.78;;;17.00;99.90;;;;;;5052278;28;20299;-62
2023/09/07 00:48:18;;;;;;;6.53;3.97;;;17.00;99.90;;;;;;5046152;28;20060;-63
2023/09/07 00:50:44;;;;;;;8.20;3.80;;;16.90;99.90;;;;;;5052386;28;20033;-62
2023/09/07 00:53:11;;;;;;;5.95;3.67;;;16.70;99.90;;;;;;5047346;28;20045;-62
2023/09/07 00:55:37;;;;;;;5.20;3.70;;;16.70;99.90;;;;;;5044603;28;20451;-63
2023/09/07 00:58:04;;;;;;;9.25;3.90;;;16.60;99.90;;;;;;5042655;28;20033;-59
2023/09/07 01:00:30;;;;;;;7.65;3.50;;;16.60;99.90;;;;;;5043955;28;20041;-63
2023/09/07 01:02:56;;;;;;;9.20;3.80;;;16.60;99.90;;;;;;5045109;28;20037;-61
2023/09/07 01:05:24;;;;;;;;;;;16.60;99.90;;;;;;5046421;28;20044;-61
2023/09/07 01:07:57;;;;;;;14.57;3.70;;;16.40;99.90;;;;;;5051503;28;20047;-63
2023/09/07 01:10:23;;;;;;;8.18;3.78;;;16.40;99.90;;;;;;5045740;28;20056;-65
2023/09/07 01:12:48;;;;;;;;;;;16.40;99.90;;;;;;5045019;28;20033;-62
2023/09/07 01:15:14;;;;;;;6.85;3.72;;;16.50;99.90;;;;;;5044978;28;20377;-63
2023/09/07 01:17:40;;;;;;;;;;;16.40;99.90;;;;;;5045925;28;20040;-64
2023/09/07 01:20:09;;;;;;;8.67;4.17;;;16.40;99.90;;;;;;5042778;28;20072;-64
2023/09/07 01:22:36;;;;;;;12.10;3.80;;;16.30;99.90;;;;;;5046765;28;20420;-63
2023/09/07 01:25:02;;;;;;;4.50;3.40;;;16.30;99.90;;;;;;5043772;28;20101;-63
2023/09/07 01:27:28;;;;;;;;;;;16.30;99.90;;;;;;5048226;28;20160;-63
2023/09/07 01:29:54;;;;;;;6.57;3.70;;;16.30;99.90;;;;;;5042163;28;20858;-63
2023/09/07 01:32:20;;;;;;;9.77;4.13;;;16.30;99.90;;;;;;5042116;28;20083;-63
2023/09/07 01:34:45;;;;;;;;;;;16.20;99.90;;;;;;5042957;28;20138;-62
2023/09/07 01:37:11;;;;;;;9.68;3.75;;;16.10;99.90;;;;;;5051398;28;19920;-64
2023/09/07 01:39:36;;;;;;;9.35;3.38;;;16.10;99.90;;;;;;5044526;28;20029;-63
2023/09/07 01:42:02;;;;;;;10.95;4.10;;;16.10;99.90;;;;;;5048382;28;20037;-62
2023/09/07 01:44:29;;;;;;;;;;;16.10;99.90;;;;;;5042216;28;20036;-63
2023/09/07 01:46:55;;;;;;;6.50;3.90;;;16.00;99.90;;;;;;5050681;28;20636;-65
2023/09/07 01:49:20;;;;;;;6.60;3.40;;;15.90;99.90;;;;;;5040247;28;20036;-64
2023/09/07 01:51:46;;;;;;;;;;;15.90;99.90;;;;;;5045567;28;20114;-63
2023/09/07 01:54:12;;;;;;;7.90;4.15;;;15.90;99.90;;;;;;5043972;28;19975;-63
2023/09/07 01:56:39;;;;;;;;;;;15.80;99.90;;;;;;5048040;28;20044;-63
2023/09/07 01:59:04;;;;;;;5.03;3.60;;;15.80;99.90;;;;;;5043797;28;19923;-63
2023/09/07 02:01:31;;;;;;;;;;;15.60;99.90;;;;;;5045209;28;20036;-62
2023/09/07 02:03:57;;;;;;;7.05;3.95;;;15.60;99.90;;;;;;5038942;28;19927;-64
2023/09/07 02:06:23;;;;;;;;;;;15.50;99.90;;;;;;5044747;28;20144;-62
2023/09/07 02:08:48;;;;;;;10.00;3.88;;;15.50;99.90;;;;;;5043060;28;20008;-63
2023/09/07 02:11:15;;;;;;;12.70;4.53;;;15.50;99.90;;;;;;5047107;28;20049;-63
2023/09/07 02:13:46;;;;;;;7.43;3.90;;;15.50;99.90;;;;;;5041974;28;20036;-62
2023/09/07 02:16:11;;;;;;;9.27;4.20;;;15.50;99.90;;;;;;5045710;28;20036;-64
2023/09/07 02:18:39;;;;;;;;;;;15.40;99.90;;;;;;5042308;28;20100;-63
2023/09/07 02:21:05;;;;;;;6.55;3.80;;;15.40;99.90;;;;;;5045797;28;19929;-63
2023/09/07 02:23:35;;;;;;;4.43;3.67;;;15.40;99.90;;;;;;5052017;28;20043;-62
2023/09/07 02:26:00;;;;;;;10.35;3.97;;;15.30;99.90;;;;;;5045156;28;20068;-64
2023/09/07 02:28:26;;;;;;;;;;;15.40;99.90;;;;;;5050741;28;20254;-63
2023/09/07 02:30:52;;;;;;;12.32;4.45;;;15.30;99.90;;;;;;5047548;28;20337;-63
2023/09/07 02:33:18;;;;;;;;;;;15.30;99.90;;;;;;5041890;28;20067;-65
2023/09/07 02:35:43;;;;;;;5.40;3.72;;;15.30;99.90;;;;;;5043636;28;20281;-64
2023/09/07 02:38:09;;;;;;;5.95;3.85;;;15.40;99.90;;;;;;5051686;28;20102;-63
2023/09/07 02:40:42;;;;;;;;;;;15.30;99.90;;;;;;5048941;28;20162;-62
2023/09/07 02:43:08;;;;;;;5.85;4.25;;;15.20;99.90;;;;;;5049592;28;20489;-63
2023/09/07 02:45:34;;;;;;;;;;;15.20;99.90;;;;;;5042713;28;20037;-63
2023/09/07 02:47:59;;;;;;;11.02;3.70;;;15.20;99.90;;;;;;5041501;28;19924;-61
2023/09/07 02:50:25;;;;;;;7.35;3.67;;;15.10;99.90;;;;;;5045513;28;20095;-63
2023/09/07 02:52:50;;;;;;;;;;;15.10;99.90;;;;;;5047203;28;20037;-63
2023/09/07 02:55:16;;;;;;;6.15;4.43;;;15.10;99.90;;;;;;5039001;28;19970;-62
2023/09/07 02:57:41;;;;;;;;;;;15.00;99.90;;;;;;5038514;28;20573;-63
2023/09/07 03:00:09;;;;;;;7.70;3.78;;;15.00;99.90;;;;;;5051002;28;19924;-62
2023/09/07 03:02:35;;;;;;;5.80;3.90;;;14.90;99.90;;;;;;5040542;28;20029;-62
2023/09/07 03:05:01;;;;;;;6.50;4.15;;;14.80;99.90;;;;;;5038944;28;20041;-62
2023/09/07 03:07:32;;;;;;;6.65;4.47;;;14.80;99.90;;;;;;5049120;28;20394;-64
2023/09/07 03:09:58;;;;;;;8.82;4.18;;;14.80;99.90;;;;;;5038281;28;20448;-64
2023/09/07 03:12:23;;;;;;;;;;;14.80;99.90;;;;;;5052750;28;20037;-63
2023/09/07 03:14:50;;;;;;;6.47;3.90;;;14.80;99.90;;;;;;5032520;28;19917;-63
2023/09/07 03:17:17;;;;;;;9.98;4.35;;;14.80;99.90;;;;;;5042865;28;20888;-63
2023/09/07 03:19:44;;;;;;;5.97;4.40;;;14.80;99.90;;;;;;5051776;28;20049;-65
2023/09/07 03:22:10;;;;;;;6.45;4.25;;;14.80;99.90;;;;;;5045209;28;20051;-65
2023/09/07 03:24:35;;;;;;;;;;;14.80;99.90;;;;;;5034499;28;20041;-63
2023/09/07 03:27:01;;;;;;;9.07;4.22;;;14.70;99.90;;;;;;5044429;28;20510;-63
2023/09/07 03:29:26;;;;;;;;;;;14.70;99.90;;;;;;5037332;28;20495;-56
2023/09/07 03:31:52;;;;;;;6.30;4.10;;;14.60;99.90;;;;;;5038893;28;20573;-63
2023/09/07 03:34:17;;;;;;;;;;;14.60;99.90;;;;;;5038742;28;21301;-64
2023/09/07 03:36:43;;;;;;;7.60;4.07;;;14.60;99.90;;;;;;5040561;28;19920;-62
2023/09/07 03:39:09;;;;;;;;;;;14.60;99.90;;;;;;5042244;28;20505;-63
2023/09/07 03:41:35;;;;;;;8.38;4.15;;;14.50;99.90;;;;;;5042813;28;20461;-63
2023/09/07 03:44:01;;;;;;;6.20;4.50;;;14.50;99.90;;;;;;5037820;28;20045;-63
2023/09/07 03:46:27;;;;;;;;;;;14.50;99.90;;;;;;5039122;28;20045;-62
2023/09/07 03:48:52;;;;;;;6.18;4.60;;;14.50;99.90;;;;;;5035403;28;19924;-64
2023/09/07 03:51:18;;;;;;;;;;;14.40;99.90;;;;;;5047146;28;20033;-63
2023/09/07 03:53:43;;;;;;;7.90;4.65;;;14.40;99.90;;;;;;5052516;28;19916;-60
2023/09/07 03:56:09;;;;;;;11.55;4.65;;;14.40;99.90;;;;;;5047800;28;20049;-64
2023/09/07 03:58:34;;;;;;;;;;;14.40;99.90;;;;;;5038771;28;21418;-63
2023/09/07 04:01:00;;;;;;;7.03;4.00;;;14.40;99.90;;;;;;5042439;28;19928;-63
2023/09/07 04:03:26;;;;;;;5.35;4.05;;;14.40;99.90;;;;;;5038570;28;20511;-62
2023/09/07 04:05:52;;;;;;;9.05;3.90;;;14.40;99.90;;;;;;5038236;28;20071;-63
2023/09/07 04:08:18;;;;;;;7.72;4.70;;;14.30;99.90;;;;;;5050714;28;20639;-61
2023/09/07 04:10:44;;;;;;;;;;;14.40;99.90;;;;;;5049457;28;20039;-62
2023/09/07 04:13:09;;;;;;;7.40;5.07;;;14.40;99.90;;;;;;5051916;28;19921;-63
2023/09/07 04:15:41;;;;;;;;;;;14.40;99.90;;;;;;5040740;28;20036;-65
2023/09/07 04:18:07;;;;;;;8.48;4.28;;;14.40;99.90;;;;;;5051100;28;19951;-61
2023/09/07 04:20:32;;;;;;;;;;;14.30;99.90;;;;;;5044445;28;20140;-63
2023/09/07 04:22:58;;;;;;;10.35;5.43;;;14.30;99.90;;;;;;5045208;28;19986;-62
2023/09/07 04:25:23;;;;;;;;;;;14.20;99.90;;;;;;5049353;28;20158;-63
2023/09/07 04:27:49;;;;;;;10.32;4.85;;;14.10;99.90;;;;;;5051593;28;19917;-62
2023/09/07 04:30:15;;;;;;;;;;;14.10;99.90;;;;;;5043898;28;20040;-64
2023/09/07 04:32:40;;;;;;;8.50;4.70;;;14.10;99.90;;;;;;5045114;28;19923;-64
2023/09/07 04:35:07;;;;;;;;;;;14.10;99.90;;;;;;5052793;28;20035;-63
2023/09/07 04:37:32;;;;;;;8.68;4.90;;;14.10;99.90;;;;;;5055224;28;19917;-62
2023/09/07 04:39:58;;;;;;;;;;;14.10;99.90;;;;;;5050991;28;20036;-63
2023/09/07 04:42:24;;;;;;;7.15;4.28;;;14.00;99.90;;;;;;5047917;28;19968;-64
2023/09/07 04:44:49;;;;;;;;;;;14.10;99.90;;;;;;5057606;28;20857;-62
2023/09/07 04:47:18;;;;;;;8.52;4.82;;;14.00;99.90;;;;;;5049711;28;19925;-62
2023/09/07 04:49:49;;;;;;;10.40;4.70;;;14.00;99.90;;;;;;5043973;28;20056;-63
2023/09/07 04:52:15;;;;;;;7.13;4.75;;;13.90;99.90;;;;;;5057755;28;20044;-63
2023/09/07 04:54:40;;;;;;;;;;;14.00;99.90;;;;;;5061384;28;20034;-63
2023/09/07 04:57:06;;;;;;;6.38;3.97;;;13.90;99.90;;;;;;5056394;28;19927;-63
2023/09/07 04:59:31;;;;;;;;;;;13.80;99.90;;;;;;5046513;28;20435;-63
2023/09/07 05:02:01;;;;;;;7.80;4.05;;;13.90;99.90;;;;;;5046763;28;19916;-63
2023/09/07 05:04:27;;;;;;;17.50;4.68;;;13.90;99.90;;;;;;5042606;28;20045;-62
2023/09/07 05:06:53;;;;;;;14.20;4.53;;;14.00;99.90;;;;;;5049755;28;20079;-63
2023/09/07 05:09:20;;;;;;;;;;;13.90;99.90;;;;;;5044085;28;20068;-63
2023/09/07 05:11:45;;;;;;;7.45;4.53;;;13.80;99.90;;;;;;5052548;28;19920;-63
2023/09/07 05:14:11;;;;;;;7.82;4.82;;;13.90;99.90;;;;;;5039636;28;20124;-63
2023/09/07 05:16:37;;;;;;;15.73;4.43;;;14.10;99.90;;;;;;5044684;28;20067;-63
2023/09/07 05:19:03;;;;;;;;;;;14.70;99.90;;;;;;5041918;28;20041;-63
2023/09/07 05:21:28;;;;;;;9.40;4.72;;;15.30;99.90;;;;;;5039125;28;19954;-61
2023/09/07 05:23:54;;;;;;;;;;;15.60;99.90;;;;;;5041088;28;20044;-63
2023/09/07 05:26:25;;;;;;;11.77;4.00;;;16.30;99.90;;;;;;5039675;28;19921;-63
2023/09/07 05:28:51;;;;;;;8.15;4.40;;;17.20;99.90;;;;;;5041924;28;20040;-62
2023/09/07 05:31:17;;;;;;;;;;;17.40;99.90;;;;;;5036789;28;20033;-63
2023/09/07 05:33:42;;;;;;;9.65;3.78;;;17.00;99.90;;;;;;5035096;28;19921;-68
2023/09/07 05:36:08;;;;;;;;;;;17.00;99.90;;;;;;5041485;28;20037;-68
2023/09/07 05:38:34;;;;;;;6.20;3.90;;;17.30;99.90;;;;;;5035305;28;19917;-64
2023/09/07 05:41:00;;;;;;;;;;;17.60;99.90;;;;;;5038864;28;20158;-65
2023/09/07 05:43:25;;;;;;;8.77;3.67;;;17.50;99.90;;;;;;5036626;28;20292;-64
2023/09/07 05:45:51;;;;;;;6.15;3.90;;;17.10;99.90;;;;;;5044034;28;20041;-62
2023/09/07 05:48:17;;;;;;;;;;;16.80;99.90;;;;;;5044629;28;20041;-64
2023/09/07 05:50:43;;;;;;;15.15;4.57;;;16.60;99.90;;;;;;5040575;28;19947;-64
2023/09/07 05:53:09;;;;;;;8.98;4.13;;;16.40;99.90;;;;;;5041249;28;20041;-64
2023/09/07 05:55:34;;;;;;;;;;;16.40;99.90;;;;;;5036382;28;20405;-66
2023/09/07 05:58:06;;;;;;;12.27;4.88;;;16.30;99.90;;;;;;5038723;28;19956;-64
2023/09/07 06:00:31;;;;;;;7.00;4.30;;;16.30;99.90;;;;;;5039213;28;20041;-61
2023/09/07 06:02:57;;;;;;;;;;;16.30;99.90;;;;;;5035200;28;20039;-61
2023/09/07 06:05:23;;;;;;;9.40;3.90;;;16.40;99.90;;;;;;5043848;28;20008;-63
2023/09/07 06:07:48;;;;;;;6.13;3.75;;;16.80;99.90;;;;;;5040365;28;20041;-61
2023/09/07 06:10:14;;;;;;;;;;;17.30;99.90;;;;;;5046772;28;20032;-63
2023/09/07 06:12:40;;;;;;;6.47;4.30;;;17.50;99.90;;;;;;5044144;28;20002;-63
2023/09/07 06:15:07;;;;;;;9.35;4.38;;;18.30;99.90;;;;;;5047489;28;20037;-60
2023/09/07 06:17:32;;;;;;;7.43;4.45;;;19.20;99.90;;;;;;5056114;28;20039;-61
2023/09/07 06:19:58;;;;;;;6.28;4.07;;;19.60;99.90;;;;;;5039883;28;20041;-66
2023/09/07 06:22:23;;;;;;;4.95;3.55;;;19.70;99.90;;;;;;5042287;28;20037;-65
2023/09/07 06:24:49;;;;;;;8.75;4.40;;;19.30;99.90;;;;;;5041399;28;20041;-65
2023/09/07 06:27:15;;;;;;;12.00;3.75;;;19.10;99.90;;;;;;5047422;28;20037;-70
2023/09/07 06:29:40;;;;;;;10.38;4.30;;;18.90;99.90;;;;;;5034584;28;20033;-68
2023/09/07 06:32:06;;;;;;;5.78;3.88;;;18.70;99.90;;;;;;5038405;28;20125;-64
2023/09/07 06:34:32;;;;;;;9.68;3.78;;;18.70;99.90;;;;;;5042519;28;20041;-63
2023/09/07 06:36:57;;;;;;;7.90;4.80;;;18.60;99.90;;;;;;5052067;28;20065;-63
2023/09/07 06:39:23;;;;;;;7.90;4.53;;;18.60;99.90;;;;;;5044390;28;20037;-63
2023/09/07 06:41:49;;;;;;;;;;;18.50;99.90;;;;;;5041232;28;20048;-65
2023/09/07 06:44:14;;;;;;;4.53;3.60;;;18.50;99.90;;;;;;5036779;28;20081;-64
2023/09/07 06:46:40;;;;;;;;;;;18.50;99.90;;;;;;5043085;28;20453;-63
2023/09/07 06:49:06;;;;;;;8.50;3.63;;;18.60;99.90;;;;;;5047942;28;19927;-63
2023/09/07 06:51:32;;;;;;;6.43;3.33;;;18.70;99.90;;;;;;5033068;28;20060;-65
2023/09/07 06:53:57;;;;;;;;;;;18.90;99.90;;;;;;5040882;28;20056;-63
2023/09/07 06:56:23;;;;;;;6.03;3.08;;;18.90;99.90;;;;;;5046072;28;19963;-62
2023/09/07 06:58:49;;;;;;;7.47;3.72;;;18.90;99.90;;;;;;5043170;28;20635;-63
2023/09/07 07:01:15;;;;;;;7.38;4.13;;;18.90;99.90;;;;;;5046201;28;20127;-63
2023/09/07 07:03:41;;;;;;;;;;;18.90;99.90;;;;;;5044368;28;20033;-63
2023/09/07 07:06:06;;;;;;;6.40;4.05;;;19.00;99.90;;;;;;5038731;28;19929;-65
2023/09/07 07:08:32;;;;;;;6.97;4.28;;;19.20;99.90;;;;;;5043679;28;20033;-63
2023/09/07 07:10:58;;;;;;;9.50;3.78;;;19.30;99.90;;;;;;5051586;28;20037;-64
2023/09/07 07:13:23;;;;;;;;;;;19.30;99.90;;;;;;5041891;28;20044;-64
2023/09/07 07:15:49;;;;;;;6.18;3.20;;;19.30;99.90;;;;;;5034952;28;19935;-65
2023/09/07 07:18:14;;;;;;;5.88;3.25;;;19.40;99.90;;;;;;5035718;28;20091;-64
2023/09/07 07:20:43;;;;;;;12.10;3.53;;;19.50;99.90;;;;;;5036189;28;20037;-66
2023/09/07 07:23:09;;;;;;;5.57;3.47;;;19.60;99.90;;;;;;5049026;28;20075;-64
2023/09/07 07:25:34;;;;;;;;;;;19.70;99.90;;;;;;5039700;28;20647;-65
2023/09/07 07:28:05;;;;;;;6.85;3.28;;;19.70;99.90;;;;;;5046330;28;20609;-64
2023/09/07 07:30:34;;;;;;;7.53;4.03;;;19.70;99.90;;;;;;5046387;28;20480;-64
2023/09/07 07:33:00;;;;;;;6.82;3.60;;;19.80;99.90;;;;;;5041091;28;20365;-65
2023/09/07 07:35:26;;;;;;;5.88;3.78;;;19.80;99.90;;;;;;5045129;28;20084;-66
2023/09/07 07:37:52;;;;;;;;;;;19.90;99.90;;;;;;5054690;28;20122;-64
2023/09/07 07:40:18;;;;;;;7.18;3.72;;;19.80;99.90;;;;;;5048622;28;19912;-64
2023/09/07 07:42:44;;;;;;;7.85;3.72;;;20.00;99.90;;;;;;5042105;28;20033;-65
2023/09/07 07:45:10;;;;;;;7.07;4.15;;;20.10;99.90;;;;;;5044506;28;20362;-64
2023/09/07 07:47:35;;;;;;;;;;;20.10;99.90;;;;;;5049025;28;20048;-63
2023/09/07 07:50:01;;;;;;;10.85;4.57;;;20.20;99.90;;;;;;5047982;28;20276;-63
2023/09/07 07:52:27;;;;;;;9.82;3.85;;;20.20;99.90;;;;;;5045646;28;20056;-67
2023/09/07 07:54:53;;;;;;;;;;;20.20;99.90;;;;;;5045635;28;20033;-67
2023/09/07 07:57:18;;;;;;;5.40;3.58;;;20.30;99.90;;;;;;5048539;28;19923;-63
2023/09/07 07:59:44;;;;;;;6.63;3.58;;;20.40;99.90;;;;;;5043925;28;20032;-66
2023/09/07 08:02:10;;;;;;;;;;;20.60;99.90;;;;;;5043729;28;20094;-64
2023/09/07 08:04:35;;;;;;;4.13;3.25;;;20.70;99.90;;;;;;5046689;28;19916;-67
2023/09/07 08:07:04;;;;;;;6.05;3.20;;;21.30;99.90;;;;;;5044910;28;20051;-64
2023/09/07 08:09:31;;;;;;;8.82;3.53;;;22.60;99.90;;;;;;5045311;28;20068;-65
2023/09/07 08:11:57;;;;;;;5.18;3.50;;;23.30;97.80;;;;;;5055929;28;20040;-63
2023/09/07 08:14:24;;;;;;;5.68;3.47;;;23.40;97.70;;;;;;5041290;28;20046;-64
2023/09/07 08:16:50;;;;;;;3.40;2.80;;;24.70;96.80;;;;;;5054626;28;20135;-64
2023/09/07 08:19:16;;;;;;;5.93;2.90;;;26.40;93.60;;;;;;5040998;28;20116;-65
2023/09/07 08:21:42;;;;;;;5.32;3.30;;;27.80;92.30;;;;;;5047012;28;20489;-65
2023/09/07 08:24:08;;;;;;;4.43;3.30;;;28.90;88.50;;;;;;5043617;28;20048;-66
2023/09/07 08:26:35;;;;;;;8.95;3.08;;;29.80;85.80;;;;;;5046763;28;20045;-65
2023/09/07 08:29:05;;;;;;;4.85;3.20;;;30.10;81.30;;;;;;5044866;28;20047;-63
2023/09/07 08:31:34;;;;;;;5.35;3.45;;;30.00;80.50;;;;;;5043939;28;20122;-64
2023/09/07 08:34:09;;;;;;;4.85;3.00;;;29.40;79.70;;;;;;5039109;28;20077;-64
2023/09/07 08:36:34;;;;;;;4.50;3.17;;;28.20;84.80;;;;;;5047028;28;20116;-61
2023/09/07 08:39:09;;;;;;;7.93;3.67;;;26.60;86.70;;;;;;5045418;28;20655;-62
2023/09/07 08:41:46;;;;;;;4.63;3.63;;;25.40;90.60;;;;;;5050849;28;20049;-63
2023/09/07 08:44:22;;;;;;;4.28;3.15;;;24.60;93.10;;;;;;5043949;28;20079;-61
2023/09/07 08:46:51;;;;;;;7.20;4.30;;;24.00;93.80;;;;;;5053318;28;20544;-64
2023/09/07 08:49:20;;;;;;;7.57;3.47;;;23.60;94.50;;;;;;5041459;28;20044;-63
2023/09/07 08:51:46;;;;;;;4.30;3.20;;;23.60;95.20;;;;;;5054322;28;20685;-63
2023/09/07 08:54:12;;;;;;;6.47;3.15;;;23.40;95.20;;;;;;5043278;28;20033;-64
2023/09/07 08:56:38;;;;;;;6.75;3.33;;;23.20;95.00;;;;;;5048867;28;20053;-63
2023/09/07 08:59:04;;;;;;;7.10;4.07;;;23.10;95.90;;;;;;5041564;28;20033;-62
2023/09/07 09:01:33;;;;;;;10.57;4.00;;;23.20;96.40;;;;;;5046361;28;20797;-63
2023/09/07 09:03:59;;;;;;;6.10;3.63;;;23.30;95.20;;;;;;5048061;28;20052;-66
2023/09/07 09:06:25;;;;;;;5.63;3.70;;;23.40;96.50;;;;;;5049578;28;20051;-62
2023/09/07 09:08:55;;;;;;;11.38;4.45;;;23.40;96.50;;;;;;5047579;28;20037;-62
2023/09/07 09:11:23;;;;;;;5.00;3.38;;;23.50;96.20;;;;;;5045721;28;20013;-63
2023/09/07 09:13:50;;;;;;;7.93;3.13;;;23.50;95.00;;;;;;5045694;28;20033;-60
2023/09/07 09:16:16;;;;;;;8.32;3.92;;;23.50;96.20;;;;;;5040471;28;20060;-63
2023/09/07 09:18:52;;;;;;;5.80;3.63;;;23.50;94.80;;;;;;5040994;28;20459;-63
2023/09/07 09:21:22;;;;;;;8.43;4.00;;;23.50;95.90;;;;;;5039015;28;20101;-64
2023/09/07 09:23:50;;;;;;;6.75;3.60;;;23.50;95.50;;;;;;5039849;28;20496;-63
2023/09/07 09:26:16;;;;;;;5.72;3.65;;;23.50;95.40;;;;;;5035769;28;20044;-65
2023/09/07 09:28:44;;;;;;;4.78;3.53;;;23.50;95.30;;;;;;5044870;28;20485;-63
2023/09/07 09:31:12;;;;;;;6.00;4.00;;;23.80;95.10;;;;;;5036458;28;20041;-65
2023/09/07 09:33:39;;;;;;;6.78;3.58;;;23.80;94.10;;;;;;5038200;28;20902;-63
2023/09/07 09:36:06;;;;;;;5.03;3.70;;;23.90;95.00;;;;;;5043421;28;20045;-64
2023/09/07 09:38:33;;;;;;;11.05;6.03;;;24.00;94.50;;;;;;5043580;28;20048;-63
2023/09/07 09:40:59;;;;;;;10.63;6.43;;;24.10;94.90;;;;;;5044184;28;20053;-64
2023/09/07 09:43:28;;;;;;;8.57;4.32;;;24.10;95.60;;;;;;5041164;28;20124;-65
2023/09/07 09:45:54;;;;;;;8.05;5.38;;;24.30;95.60;;;;;;5044621;28;20175;-64
2023/09/07 09:48:23;;;;;;;7.72;3.97;;;24.40;95.50;;;;;;5040493;28;20033;-65
2023/09/07 09:50:50;;;;;;;7.38;3.75;;;24.60;94.90;;;;;;5043282;28;20044;-65
2023/09/07 09:53:18;;;;;;;4.78;3.55;;;24.70;94.60;;;;;;5037458;28;20051;-66
2023/09/07 09:55:47;;;;;;;4.68;3.42;;;24.80;94.40;;;;;;5043165;28;20048;-64
2023/09/07 09:58:14;;;;;;;5.50;3.05;;;24.80;93.20;;;;;;5039879;28;20033;-65
2023/09/07 10:00:49;;;;;;;4.90;3.55;;;24.70;93.30;;;;;;5041769;28;20037;-61
2023/09/07 10:03:23;;;;;;;9.10;3.08;;;24.60;93.30;;;;;;5043754;28;20400;-64
2023/09/07 10:05:49;;;;;;;7.45;3.10;;;24.70;94.80;;;;;;5041760;28;20044;-63
2023/09/07 10:08:17;;;;;;;6.47;3.03;;;24.80;94.30;;;;;;5041290;28;20037;-66
2023/09/07 10:10:46;;;;;;;6.18;3.50;;;24.80;94.30;;;;;;5045355;28;20041;-65
2023/09/07 10:13:16;;;;;;;5.85;3.38;;;24.90;94.00;;;;;;5043092;28;20773;-64
2023/09/07 10:15:42;;;;;;;5.60;3.20;;;24.80;94.00;;;;;;5046057;28;20048;-65
2023/09/07 10:18:13;;;;;;;5.57;3.40;;;24.60;93.90;;;;;;5043829;28;20521;-64
2023/09/07 10:20:58;;;;;;;4.47;3.30;;;24.70;93.90;;;;;;5046879;28;20051;-65
2023/09/07 10:23:35;;;;;;;4.72;3.15;;;24.60;93.00;;;;;;5046368;28;20075;-65
2023/09/07 10:26:04;;;;;;;7.03;3.00;;;24.50;93.60;;;;;;5046997;28;20057;-64
2023/09/07 10:28:30;;;;;;;3.97;3.28;;;24.70;92.50;;;;;;5045022;28;20447;-66
2023/09/07 10:31:05;;;;;;;3.97;3.05;;;24.70;92.40;;;;;;5020124;28;20040;-66
2023/09/07 10:33:32;;;;;;;5.60;3.33;;;24.80;92.20;;;;;;5042657;28;20045;-65
2023/09/07 10:36:20;;;;;;;6.88;2.97;;;25.00;93.60;;;;;;5045032;28;20295;-66
2023/09/07 10:38:46;;;;;;;5.80;3.13;;;24.90;91.00;;;;;;5044412;28;20036;-64
2023/09/07 10:41:41;;;;;;;7.40;3.08;;;24.90;91.40;;;;;;5023458;28;20056;-66
2023/09/07 10:44:07;;;;;;;5.20;3.30;;;24.80;88.70;;;;;;5039025;28;20065;-67
2023/09/07 10:46:33;;;;;;;4.78;2.95;;;24.70;90.50;;;;;;5038807;28;20536;-65
2023/09/07 10:48:58;;;;;;;6.88;2.53;;;24.80;88.10;;;;;;5034110;28;20132;-64
2023/09/07 10:51:24;;;;;;;3.70;2.75;;;24.80;88.80;;;;;;5044564;28;20072;-65
2023/09/07 10:53:50;;;;;;;7.32;3.30;;;24.80;83.50;;;;;;5040262;28;20495;-65
2023/09/07 10:56:16;;;;;;;5.55;3.10;;;24.90;86.00;;;;;;5039139;28;20046;-65
2023/09/07 10:58:42;;;;;;;3.97;2.60;;;25.10;88.40;;;;;;5037709;28;20033;-66
2023/09/07 11:01:09;;;;;;;5.55;2.97;;;25.30;85.50;;;;;;5034167;28;21172;-64
2023/09/07 11:03:42;;;;;;;5.18;2.42;;;25.50;85.60;;;;;;5037959;28;20056;-64
2023/09/07 11:06:25;;;;;;;5.00;2.92;;;25.70;87.40;;;;;;4984014;28;20034;-64
2023/09/07 11:08:51;;;;;;;5.93;2.85;;;25.80;88.40;;;;;;5040636;28;20052;-65
2023/09/07 11:11:17;;;;;;;4.25;2.45;;;25.90;85.70;;;;;;5043349;28;20424;-64
2023/09/07 11:13:43;;;;;;;3.72;2.58;;;26.00;85.10;;;;;;5042925;28;20048;-65
2023/09/07 11:16:10;;;;;;;4.88;2.50;;;26.00;87.60;;;;;;5042507;28;20842;-66
2023/09/07 11:18:36;;;;;;;4.07;2.65;;;25.90;82.30;;;;;;5043073;28;20051;-65
2023/09/07 11:21:07;;;;;;;4.10;2.40;;;25.80;81.40;;;;;;5038655;28;20041;-63
2023/09/07 11:23:56;;;;;;;3.42;2.63;;;25.60;80.00;;;;;;5038427;28;20048;-65
2023/09/07 11:33:36;;;;;;;2.60;2.10;;;25.40;77.70;;;;;;5036997;28;20075;-65
2023/09/07 11:36:49;;;;;;;8.00;3.08;;;25.50;84.80;;;;;;5038095;28;20057;-64
2023/09/07 11:39:15;;;;;;;5.15;2.60;;;25.60;78.40;;;;;;5024446;28;20056;-66
2023/09/07 11:41:44;;;;;;;4.13;2.45;;;25.70;81.60;;;;;;5045313;28;20041;-66
2023/09/07 11:44:11;;;;;;;4.68;2.30;;;25.80;83.80;;;;;;5038436;28;20500;-64
2023/09/07 11:46:37;;;;;;;4.60;2.67;;;26.00;80.70;;;;;;5041854;28;20092;-66
2023/09/07 11:49:04;;;;;;;2.92;2.28;;;26.10;80.80;;;;;;5035188;28;20060;-64
2023/09/07 11:51:30;;;;;;;4.63;2.33;;;26.10;77.50;;;;;;5048920;28;20540;-65
2023/09/07 11:53:56;;;;;;;4.65;2.28;;;26.20;82.40;;;;;;5048954;28;20839;-69
2023/09/07 11:56:22;;;;;;;3.22;2.33;;;26.30;80.00;;;;;;5039199;28;20047;-66
2023/09/07 11:58:47;;;;;;;8.90;2.47;;;26.40;81.90;;;;;;5050825;28;20520;-64
2023/09/07 12:01:16;;;;;;;4.43;2.90;;;26.40;81.20;;;;;;5046789;28;20053;-67
2023/09/07 12:03:43;;;;;;;5.10;3.10;;;26.10;79.50;;;;;;5038957;28;20041;-64
2023/09/07 12:06:09;;;;;;;5.28;2.75;;;26.10;79.60;;;;;;5037260;28;20059;-65
2023/09/07 12:08:36;;;;;;;6.07;2.85;;;26.10;80.30;;;;;;5043228;28;20129;-63
2023/09/07 12:11:01;;;;;;;5.05;2.28;;;26.00;77.50;;;;;;5040280;28;20037;-67
2023/09/07 12:13:27;;;;;;;6.13;2.33;;;25.80;74.40;;;;;;5038940;28;20033;-65
2023/09/07 12:15:53;;;;;;;10.18;2.15;;;25.80;74.10;;;;;;5037457;28;20044;-65
2023/09/07 12:18:18;;;;;;;6.60;2.50;;;26.00;73.20;;;;;;5044933;28;20071;-62
2023/09/07 12:20:47;;;;;;;7.68;2.40;;;26.10;68.70;;;;;;5053154;28;20560;-64
2023/09/07 12:23:12;;;;;;;5.47;2.33;;;26.20;72.90;;;;;;5052840;28;20036;-65
2023/09/07 12:30:18;;;;;;;3.83;2.30;;;26.20;71.90;;;;;;5012589;28;20076;-65
2023/09/07 12:32:51;;;;;;;6.38;3.00;;;26.10;75.30;;;;;;5010158;28;20133;-64
2023/09/07 12:35:17;;;;;;;6.50;2.92;;;26.10;74.70;;;;;;5047585;28;20047;-66
2023/09/07 12:37:44;;;;;;;3.83;2.70;;;26.20;74.80;;;;;;5039243;28;20036;-65
2023/09/07 12:40:13;;;;;;;5.00;2.20;;;26.30;71.20;;;;;;5042073;28;20048;-64
2023/09/07 12:42:45;;;;;;;6.82;3.05;;;26.60;72.00;;;;;;5053355;28;20064;-65
2023/09/07 12:45:13;;;;;;;5.25;2.47;;;26.60;70.10;;;;;;5043658;28;20053;-66
2023/09/07 12:47:39;;;;;;;10.55;2.80;;;26.70;75.30;;;;;;5045135;28;20382;-65
2023/09/07 12:50:06;;;;;;;4.20;2.92;;;26.80;74.00;;;;;;5044546;28;20036;-66
2023/09/07 12:52:35;;;;;;;9.70;2.28;;;26.90;73.30;;;;;;5045856;28;20037;-66
2023/09/07 12:55:01;;;;;;;8.02;2.50;;;27.00;74.40;;;;;;5043985;28;20630;-65
2023/09/07 12:57:27;;;;;;;4.15;2.95;;;27.10;73.40;;;;;;5046061;28;20048;-66
2023/09/07 12:59:53;;;;;;;6.78;2.97;;;27.00;73.00;;;;;;5041898;28;20393;-63
2023/09/07 13:02:18;;;;;;;3.33;2.47;;;27.10;75.70;;;;;;5037416;28;20037;-66
2023/09/07 13:04:44;;;;;;;6.00;2.47;;;27.10;74.00;;;;;;5043697;28;20528;-64
2023/09/07 13:07:10;;;;;;;6.15;2.17;;;27.20;74.60;;;;;;5045493;28;20037;-65
2023/09/07 13:09:35;;;;;;;5.55;2.42;;;27.30;74.60;;;;;;5036266;28;20096;-67
2023/09/07 13:12:01;;;;;;;4.47;2.70;;;27.30;74.40;;;;;;5032752;28;20040;-65
2023/09/07 13:14:27;;;;;;;4.40;2.25;;;27.30;75.80;;;;;;5039689;28;20047;-65